createdAt,value
2022-12-12T00:01:24.277Z,95494.69
2022-12-12T00:03:51.005Z,95507.31
2022-12-12T00:06:18.412Z,95513.28
2022-12-12T00:08:45.138Z,95467.09
2022-12-12T00:11:12.436Z,95519.56
2022-12-12T00:13:39.712Z,95527.84
2022-12-12T00:16:08.737Z,95478.94
2022-12-12T00:18:39.178Z,95539.22
2022-12-12T00:21:09.004Z,95534.16
2022-12-12T00:23:35.583Z,95537.31
2022-12-12T00:26:06.699Z,95534.22
2022-12-12T00:28:33.550Z,95531.00
2022-12-12T00:31:00.383Z,95557.03
2022-12-12T00:33:27.012Z,95552.03
2022-12-12T00:35:55.378Z,95554.50
2022-12-12T00:38:24.402Z,95553.66
2022-12-12T00:40:56.931Z,95504.41
2022-12-12T00:43:24.666Z,95555.31
2022-12-12T00:45:51.600Z,95560.16
2022-12-12T00:48:18.279Z,95561.13
2022-12-12T00:50:44.986Z,95580.53
2022-12-12T00:53:11.740Z,95399.94
2022-12-12T00:55:38.323Z,95568.06
2022-12-12T00:58:05.099Z,95513.66
2022-12-12T01:00:32.666Z,95574.41
2022-12-12T01:02:59.885Z,95568.94
2022-12-12T01:05:27.208Z,95579.16
2022-12-12T01:07:54.240Z,95583.88
2022-12-12T01:10:20.906Z,95586.25
2022-12-12T01:12:47.530Z,95593.34
2022-12-12T01:15:14.492Z,95592.50
2022-12-12T01:17:41.370Z,95586.25
2022-12-12T01:20:21.211Z,95574.81
2022-12-12T01:22:48.788Z,95578.78
2022-12-12T01:25:17.036Z,95588.25
2022-12-12T01:27:45.912Z,95591.03
2022-12-12T01:30:15.918Z,95593.38
2022-12-12T01:32:42.503Z,95588.69
2022-12-12T01:35:10.128Z,95591.44
2022-12-12T01:37:39.324Z,95591.84
2022-12-12T01:40:10.039Z,95591.44
2022-12-12T01:42:36.677Z,95598.13
2022-12-12T01:45:03.584Z,95603.28
2022-12-12T01:47:30.145Z,95594.66
2022-12-12T01:50:05.911Z,95636.06
2022-12-12T01:52:39.603Z,95606.91
2022-12-12T01:55:07.672Z,95603.75
2022-12-12T01:57:40.349Z,95599.81
2022-12-12T02:00:10.062Z,95596.66
2022-12-12T02:02:37.950Z,95566.31
2022-12-12T02:05:14.937Z,95611.66
2022-12-12T02:07:41.662Z,95465.69
2022-12-12T02:10:08.584Z,95601.41
2022-12-12T02:12:35.196Z,95532.66
2022-12-12T02:15:02.431Z,95624.22
2022-12-12T02:17:48.110Z,95615.56
2022-12-12T02:20:41.615Z,95628.97
2022-12-12T02:23:33.164Z,95637.63
2022-12-12T02:26:42.822Z,95640.81
2022-12-12T02:29:34.743Z,95643.13
2022-12-12T02:32:13.593Z,95655.78
2022-12-12T02:34:51.777Z,95654.78
2022-12-12T02:37:48.360Z,95667.06
2022-12-12T02:40:36.654Z,95665.47
2022-12-12T02:43:28.265Z,95669.78
2022-12-12T02:46:03.993Z,95658.41
2022-12-12T02:48:36.691Z,95662.34
2022-12-12T02:51:06.667Z,95665.91
2022-12-12T02:53:33.221Z,95665.88
2022-12-12T02:56:09.317Z,95659.56
2022-12-12T02:58:38.636Z,95648.47
2022-12-12T03:01:16.000Z,95579.81
2022-12-12T03:04:09.763Z,95661.19
2022-12-12T03:07:00.755Z,95662.38
2022-12-12T03:09:45.486Z,95684.84
2022-12-12T03:12:22.765Z,95699.09
2022-12-12T03:15:00.909Z,95698.31
2022-12-12T03:17:45.165Z,95702.63
2022-12-12T03:20:28.676Z,95706.09
2022-12-12T03:22:57.631Z,95706.91
2022-12-12T03:25:47.278Z,95693.34
2022-12-12T03:28:38.533Z,95687.69
2022-12-12T03:31:09.395Z,95695.84
2022-12-12T03:33:44.895Z,95692.47
2022-12-12T03:36:55.841Z,95697.75
2022-12-12T03:39:48.008Z,95692.34
2022-12-12T03:42:30.720Z,95691.22
2022-12-12T03:45:10.300Z,95686.91
2022-12-12T03:47:59.121Z,95678.03
2022-12-12T03:50:33.423Z,95684.75
2022-12-12T03:53:19.767Z,95684.66
2022-12-12T03:56:01.579Z,95671.44
2022-12-12T03:58:33.223Z,95674.69
2022-12-12T04:01:04.481Z,95673.22
2022-12-12T04:03:55.415Z,95419.53
2022-12-12T04:06:35.928Z,95705.84
2022-12-12T04:09:40.113Z,95703.63
2022-12-12T04:12:45.609Z,95702.81
2022-12-12T04:15:34.811Z,95700.03
2022-12-12T04:18:20.682Z,95704.41
2022-12-12T04:21:24.328Z,95724.50
2022-12-12T04:24:16.427Z,95728.53
2022-12-12T04:27:07.680Z,95730.13
2022-12-12T04:30:07.208Z,95719.97
2022-12-12T04:33:11.751Z,95729.00
2022-12-12T04:35:49.324Z,95732.44
2022-12-12T04:38:24.372Z,95673.97
2022-12-12T04:40:55.812Z,95748.31
2022-12-12T04:43:40.404Z,95753.94
2022-12-12T04:46:12.425Z,95755.47
2022-12-12T04:48:46.429Z,95760.94
2022-12-12T04:51:17.094Z,95759.34
2022-12-12T04:53:49.810Z,95746.00
2022-12-12T04:56:23.484Z,95760.91
2022-12-12T04:58:50.295Z,95731.59
2022-12-12T05:01:25.525Z,95776.72
2022-12-12T05:03:58.058Z,95707.00
2022-12-12T05:06:50.504Z,95775.88
2022-12-12T05:09:18.657Z,95765.88
2022-12-12T05:11:45.349Z,95776.63
2022-12-12T05:14:15.533Z,95771.72
2022-12-12T05:16:47.335Z,95791.84
2022-12-12T05:19:14.391Z,95731.22
2022-12-12T05:21:41.204Z,95781.84
2022-12-12T05:24:07.979Z,95741.47
2022-12-12T05:26:35.833Z,95794.47
2022-12-12T05:29:07.258Z,95792.88
2022-12-12T05:31:34.753Z,95798.50
2022-12-12T05:34:01.458Z,95804.50
2022-12-12T05:36:28.015Z,95753.84
2022-12-12T05:38:54.602Z,95823.06
2022-12-12T05:41:21.564Z,95826.38
2022-12-12T05:43:48.141Z,95831.91
2022-12-12T05:46:14.886Z,95828.66
2022-12-12T05:48:41.526Z,95834.38
2022-12-12T05:51:08.171Z,95839.88
2022-12-12T05:53:42.272Z,95833.13
2022-12-12T05:56:11.568Z,95820.03
2022-12-12T05:58:39.221Z,95846.09
2022-12-12T06:01:06.523Z,95827.06
2022-12-12T06:03:33.585Z,95850.06
2022-12-12T06:06:00.436Z,95804.81
2022-12-12T06:08:27.105Z,95851.06
2022-12-12T06:10:53.885Z,95796.19
2022-12-12T06:13:23.487Z,95872.69
2022-12-12T06:15:50.235Z,95870.34
2022-12-12T06:18:17.050Z,95878.50
2022-12-12T06:20:43.661Z,95862.53
2022-12-12T06:23:10.306Z,95871.72
2022-12-12T06:25:36.917Z,95872.22
2022-12-12T06:28:03.684Z,95876.28
2022-12-12T06:30:30.351Z,95868.50
2022-12-12T06:32:57.060Z,95860.84
2022-12-12T06:35:23.664Z,95857.84
2022-12-12T06:37:50.228Z,95860.19
2022-12-12T06:40:23.544Z,95872.16
2022-12-12T06:42:50.008Z,95872.25
2022-12-12T06:45:17.523Z,95876.34
2022-12-12T06:47:44.189Z,95910.28
2022-12-12T06:50:11.776Z,95882.03
2022-12-12T06:52:38.680Z,95889.19
2022-12-12T06:55:05.498Z,95789.09
2022-12-12T06:57:32.161Z,95561.19
2022-12-12T06:59:58.901Z,95777.31
2022-12-12T07:02:29.652Z,95898.91
2022-12-12T07:04:58.372Z,95916.34
2022-12-12T07:07:25.051Z,95795.97
2022-12-12T07:09:51.696Z,95729.50
2022-12-12T07:12:18.361Z,95917.22
2022-12-12T07:14:44.977Z,95519.78
2022-12-12T07:17:11.575Z,95719.78
2022-12-12T07:19:38.253Z,95923.16
2022-12-12T07:22:09.651Z,95929.88
2022-12-12T07:24:36.890Z,95923.16
2022-12-12T07:27:03.710Z,95927.91
2022-12-12T07:29:30.415Z,95762.22
2022-12-12T07:31:57.059Z,95933.28
2022-12-12T07:34:23.908Z,95917.47
2022-12-12T07:36:50.491Z,95945.22
2022-12-12T07:39:20.627Z,95942.13
2022-12-12T07:41:47.774Z,95939.03
2022-12-12T07:44:15.848Z,95937.59
2022-12-12T07:46:42.579Z,95934.31
2022-12-12T07:49:09.267Z,95947.00
2022-12-12T07:51:36.429Z,95883.53
2022-12-12T07:54:03.027Z,95940.13
2022-12-12T07:56:29.566Z,95948.66
2022-12-12T07:58:56.397Z,96005.41
2022-12-12T08:01:25.971Z,95956.25
2022-12-12T08:03:53.589Z,95912.34
2022-12-12T08:06:21.939Z,95896.78
2022-12-12T08:08:49.989Z,95962.09
2022-12-12T08:11:18.783Z,95911.28
2022-12-12T08:13:45.651Z,95913.34
2022-12-12T08:16:18.069Z,95987.50
2022-12-12T08:18:44.790Z,95982.06
2022-12-12T08:21:13.128Z,95984.94
2022-12-12T08:23:41.036Z,95986.84
2022-12-12T08:26:10.943Z,95997.13
2022-12-12T08:28:37.693Z,95959.22
2022-12-12T08:31:04.796Z,95997.88
2022-12-12T08:33:31.880Z,95954.56
2022-12-12T08:35:58.565Z,95997.47
2022-12-12T08:38:25.642Z,95921.59
2022-12-12T08:40:52.283Z,95983.44
2022-12-12T08:43:18.895Z,95999.28
2022-12-12T08:45:47.176Z,95867.78
2022-12-12T08:48:13.790Z,96004.00
2022-12-12T08:50:41.337Z,95865.59
2022-12-12T08:53:08.205Z,95993.91
2022-12-12T08:55:34.905Z,95997.13
2022-12-12T08:58:01.463Z,95996.31
2022-12-12T09:00:28.070Z,95990.84
2022-12-12T09:02:54.740Z,95998.72
2022-12-12T09:05:21.403Z,95921.97
2022-12-12T09:07:47.996Z,95939.06
2022-12-12T09:10:14.715Z,95968.78
2022-12-12T09:12:42.079Z,95998.84
2022-12-12T09:15:09.873Z,95985.41
2022-12-12T09:17:36.507Z,95953.75
2022-12-12T09:20:03.701Z,95994.81
2022-12-12T09:22:30.323Z,95952.78
2022-12-12T09:24:56.931Z,95967.81
2022-12-12T09:27:23.560Z,95987.63
2022-12-12T09:29:50.144Z,95995.06
2022-12-12T09:32:22.811Z,95905.03
2022-12-12T09:34:51.232Z,95988.72
2022-12-12T09:37:17.983Z,95938.44
2022-12-12T09:39:44.666Z,95903.22
2022-12-12T09:42:26.426Z,95852.22
2022-12-12T09:44:57.262Z,95973.91
2022-12-12T09:47:36.839Z,95978.78
2022-12-12T09:50:17.061Z,95947.13
2022-12-12T09:52:44.645Z,95935.75
2022-12-12T09:55:20.366Z,95972.09
2022-12-12T09:57:58.813Z,95858.78
2022-12-12T10:00:27.307Z,95885.44
2022-12-12T10:03:22.236Z,95957.13
2022-12-12T10:09:25.529Z,95924.66
2022-12-12T10:11:55.082Z,95951.19
2022-12-12T10:14:31.556Z,95951.94
2022-12-12T10:16:59.879Z,95953.81
2022-12-12T10:19:29.965Z,95942.69
2022-12-12T10:22:04.493Z,95945.06
2022-12-12T10:24:42.667Z,95920.88
2022-12-12T10:27:14.971Z,95906.31
2022-12-12T10:29:47.575Z,95939.47
2022-12-12T10:32:20.023Z,95950.59
2022-12-12T10:34:55.694Z,95934.63
2022-12-12T10:37:52.410Z,95873.19
2022-12-12T10:40:34.200Z,95935.06
2022-12-12T10:43:03.778Z,95933.22
2022-12-12T10:45:50.188Z,95912.06
2022-12-12T10:48:16.812Z,95923.41
2022-12-12T10:50:48.625Z,95917.91
2022-12-12T10:53:15.444Z,95918.69
2022-12-12T10:55:58.691Z,95915.34
2022-12-12T10:58:27.022Z,95868.88
2022-12-12T11:01:02.846Z,95878.66
2022-12-12T11:03:34.559Z,95906.34
2022-12-12T11:06:06.338Z,95820.16
2022-12-12T11:08:36.357Z,95891.47
2022-12-12T11:11:22.943Z,95900.25
2022-12-12T11:14:01.562Z,95906.22
2022-12-12T11:16:29.504Z,95908.47
2022-12-12T11:18:59.547Z,95897.34
2022-12-12T11:21:27.317Z,95887.16
2022-12-12T11:23:56.528Z,95900.38
2022-12-12T11:26:24.677Z,95870.78
2022-12-12T11:29:03.259Z,95903.16
2022-12-12T11:31:33.888Z,95889.34
2022-12-12T11:34:06.350Z,95893.44
2022-12-12T11:36:37.693Z,95901.44
2022-12-12T11:39:41.382Z,95892.81
2022-12-12T11:42:13.936Z,95901.63
2022-12-12T11:44:41.651Z,95892.03
2022-12-12T11:47:30.069Z,95843.53
2022-12-12T11:49:59.295Z,95883.13
2022-12-12T11:52:32.005Z,95887.84
2022-12-12T11:54:59.989Z,95852.47
2022-12-12T11:57:44.054Z,95772.19
2022-12-12T12:00:22.252Z,95868.66
2022-12-12T12:03:17.821Z,95871.09
2022-12-12T12:05:58.803Z,95878.66
2022-12-12T12:08:50.698Z,95881.47
2022-12-12T12:11:33.543Z,95886.88
2022-12-12T12:14:24.265Z,95882.69
2022-12-12T12:16:59.929Z,95885.72
2022-12-12T12:19:42.369Z,95886.19
2022-12-12T12:22:20.936Z,95877.38
2022-12-12T12:24:53.595Z,95874.72
2022-12-12T12:27:38.564Z,95847.00
2022-12-12T12:30:25.265Z,95881.38
2022-12-12T12:33:08.728Z,95880.53
2022-12-12T12:35:54.386Z,95872.53
2022-12-12T12:38:55.753Z,95764.47
2022-12-12T12:41:37.526Z,95893.13
2022-12-12T12:44:15.936Z,95892.44
2022-12-12T12:46:43.070Z,95896.41
2022-12-12T12:49:24.813Z,95806.50
2022-12-12T12:52:00.636Z,95896.03
2022-12-12T12:54:40.772Z,95895.63
2022-12-12T12:57:28.056Z,95895.47
2022-12-12T12:59:59.298Z,95875.19
2022-12-12T13:03:01.212Z,95880.84
2022-12-12T13:05:50.256Z,95885.59
2022-12-12T13:08:26.673Z,95887.97
2022-12-12T13:11:00.010Z,95887.22
2022-12-12T13:13:26.545Z,95847.66
2022-12-12T13:16:05.208Z,95837.44
2022-12-12T13:18:45.209Z,95902.00
2022-12-12T13:21:34.575Z,95544.81
2022-12-12T13:24:30.989Z,95894.03
2022-12-12T13:27:03.390Z,95889.19
2022-12-12T13:29:42.512Z,95817.59
2022-12-12T13:32:21.265Z,95886.47
2022-12-12T13:34:51.441Z,95794.97
2022-12-12T13:37:21.651Z,95881.31
2022-12-12T13:39:58.616Z,95873.81
2022-12-12T13:42:25.297Z,95876.22
2022-12-12T13:44:51.976Z,95821.41
2022-12-12T13:47:24.725Z,95863.25
2022-12-12T13:50:07.008Z,95865.56
2022-12-12T13:52:37.832Z,95863.28
2022-12-12T13:55:13.773Z,95864.13
2022-12-12T13:58:02.637Z,95863.00
2022-12-12T14:00:31.388Z,95876.88
2022-12-12T14:03:16.242Z,95869.81
2022-12-12T14:05:48.392Z,95876.34
2022-12-12T14:08:15.070Z,95869.66
2022-12-12T14:10:53.682Z,95877.16
2022-12-12T14:13:23.791Z,95869.25
2022-12-12T14:16:13.252Z,95875.22
2022-12-12T14:18:55.730Z,95881.19
2022-12-12T14:21:38.728Z,95884.06
2022-12-12T14:24:32.895Z,95878.22
2022-12-12T14:27:04.013Z,95758.69
2022-12-12T14:29:33.348Z,95754.34
2022-12-12T14:32:12.339Z,95879.06
2022-12-12T14:35:03.953Z,95873.94
2022-12-12T14:37:54.389Z,95879.13
2022-12-12T14:40:25.366Z,95883.13
2022-12-12T14:43:21.788Z,95888.66
2022-12-12T14:45:49.144Z,95887.88
2022-12-12T14:48:15.954Z,95891.06
2022-12-12T14:51:07.500Z,95899.03
2022-12-12T14:53:45.743Z,95817.66
2022-12-12T14:56:21.841Z,95876.56
2022-12-12T14:59:09.192Z,95891.16
2022-12-12T15:01:38.201Z,95894.38
2022-12-12T15:04:30.988Z,95910.19
2022-12-12T15:07:00.146Z,95905.09
2022-12-12T15:09:33.093Z,95899.16
2022-12-12T15:12:15.314Z,95909.44
2022-12-12T15:14:47.701Z,95906.28
2022-12-12T15:17:23.379Z,95892.03
2022-12-12T15:20:01.915Z,95897.19
2022-12-12T15:22:35.591Z,95888.88
2022-12-12T15:25:15.738Z,95910.22
2022-12-12T15:27:52.162Z,95911.81
2022-12-12T15:30:39.781Z,95911.03
2022-12-12T15:33:24.163Z,95809.84
2022-12-12T15:35:56.399Z,95919.75
2022-12-12T15:38:26.386Z,95932.41
2022-12-12T15:40:58.024Z,95926.88
2022-12-12T15:43:29.774Z,95930.78
2022-12-12T15:45:59.370Z,95922.88
2022-12-12T15:48:27.078Z,95925.25
2022-12-12T15:51:06.572Z,95921.28
2022-12-12T15:53:39.820Z,95923.69
2022-12-12T15:56:12.961Z,95846.19
2022-12-12T15:58:42.276Z,95855.66
2022-12-12T16:01:20.121Z,95918.88
2022-12-12T16:04:06.225Z,95922.00
2022-12-12T16:06:38.505Z,95925.94
2022-12-12T16:09:11.014Z,95925.19
2022-12-12T16:11:56.404Z,95922.41
2022-12-12T16:14:40.690Z,95923.22
2022-12-12T16:17:18.211Z,95915.72
2022-12-12T16:20:11.204Z,95941.03
2022-12-12T16:22:43.899Z,95952.88
2022-12-12T16:25:23.543Z,95874.63
2022-12-12T16:27:56.760Z,95937.88
2022-12-12T16:30:24.334Z,95903.09
2022-12-12T16:32:50.933Z,95906.28
2022-12-12T16:35:20.431Z,95905.88
2022-12-12T16:37:47.401Z,95920.06
2022-12-12T16:40:16.298Z,95871.38
2022-12-12T16:42:47.317Z,95918.09
2022-12-12T16:45:13.916Z,95925.22
2022-12-12T16:47:40.562Z,95842.97
2022-12-12T16:50:07.559Z,95915.34
2022-12-12T16:52:34.611Z,95871.03
2022-12-12T16:55:01.191Z,95905.47
2022-12-12T16:57:27.718Z,95904.56
2022-12-12T16:59:54.305Z,95866.63
2022-12-12T17:02:23.955Z,95916.50
2022-12-12T17:04:51.021Z,95893.59
2022-12-12T17:07:18.042Z,95899.91
2022-12-12T17:09:45.046Z,95864.31
2022-12-12T17:12:13.230Z,95895.16
2022-12-12T17:14:40.056Z,95900.69
2022-12-12T17:17:07.079Z,95913.31
2022-12-12T17:19:34.366Z,95913.31
2022-12-12T17:22:01.097Z,95891.81
2022-12-12T17:24:28.347Z,95921.06
2022-12-12T17:26:55.177Z,95928.28
2022-12-12T17:29:22.567Z,95930.66
2022-12-12T17:31:49.331Z,95918.81
2022-12-12T17:34:16.695Z,95916.00
2022-12-12T17:36:43.491Z,95892.66
2022-12-12T17:39:11.115Z,95842.81
2022-12-12T17:41:37.894Z,95870.97
2022-12-12T17:44:04.655Z,95912.91
2022-12-12T17:46:31.271Z,95848.44
2022-12-12T17:48:58.864Z,95930.72
2022-12-12T17:51:25.830Z,95938.59
2022-12-12T17:53:52.852Z,95943.75
2022-12-12T17:56:22.033Z,95952.47
2022-12-12T17:58:49.680Z,95948.47
2022-12-12T18:01:27.054Z,95948.91
2022-12-12T18:03:54.390Z,95957.59
2022-12-12T18:06:22.749Z,95934.66
2022-12-12T18:08:50.034Z,95973.38
2022-12-12T18:11:26.991Z,95944.06
2022-12-12T18:13:58.331Z,95934.88
2022-12-12T18:16:26.504Z,95899.19
2022-12-12T18:18:54.362Z,95958.22
2022-12-12T18:21:58.599Z,95966.16
2022-12-12T18:24:10.732Z,95961.38
2022-12-12T18:26:37.484Z,95964.53
2022-12-12T18:29:06.997Z,95956.97
2022-12-12T18:31:35.047Z,95898.00
2022-12-12T18:34:01.824Z,95943.94
2022-12-12T18:36:30.382Z,95939.56
2022-12-12T18:38:58.328Z,95877.41
2022-12-12T18:41:26.397Z,95979.28
2022-12-12T18:43:53.544Z,95968.00
2022-12-12T18:46:21.927Z,95960.09
2022-12-12T18:48:49.118Z,95960.84
2022-12-12T18:51:18.463Z,95968.31
2022-12-12T18:53:47.435Z,95882.59
2022-12-12T18:56:17.109Z,95977.03
2022-12-12T18:58:44.486Z,95970.03
2022-12-12T19:01:17.303Z,95969.19
2022-12-12T19:03:45.556Z,95967.69
2022-12-12T19:06:18.703Z,95972.38
2022-12-12T19:08:45.407Z,95968.69
2022-12-12T19:11:13.117Z,95960.25
2022-12-12T19:13:40.050Z,95958.78
2022-12-12T19:16:18.016Z,95959.19
2022-12-12T19:18:45.836Z,95949.06
2022-12-12T19:21:21.751Z,95957.00
2022-12-12T19:23:49.299Z,95980.28
2022-12-12T19:26:28.199Z,95972.63
2022-12-12T19:28:59.771Z,95962.31
2022-12-12T19:31:27.524Z,95991.91
2022-12-12T19:33:54.147Z,95994.34
2022-12-12T19:36:26.350Z,95989.75
2022-12-12T19:38:54.109Z,95996.13
2022-12-12T19:41:22.523Z,95999.38
2022-12-12T19:43:51.431Z,96004.88
2022-12-12T19:46:25.142Z,96023.38
2022-12-12T19:48:56.836Z,95986.03
2022-12-12T19:51:24.716Z,96024.13
2022-12-12T19:53:57.421Z,96032.56
2022-12-12T19:56:32.670Z,96034.97
2022-12-12T19:59:00.190Z,96043.75
2022-12-12T20:01:29.563Z,95987.34
2022-12-12T20:03:58.669Z,96053.38
2022-12-12T20:06:26.044Z,96026.75
2022-12-12T20:08:52.711Z,96025.94
2022-12-12T20:11:22.105Z,96067.25
2022-12-12T20:13:54.043Z,96072.56
2022-12-12T20:16:23.258Z,96078.63
2022-12-12T20:18:50.375Z,96044.66
2022-12-12T20:21:43.597Z,96091.88
2022-12-12T20:24:07.741Z,96086.75
2022-12-12T20:26:34.718Z,96068.44
2022-12-12T20:29:01.568Z,96080.53
2022-12-12T20:31:31.268Z,96063.56
2022-12-12T20:33:59.051Z,96005.84
2022-12-12T20:36:28.429Z,96079.78
2022-12-12T20:38:56.723Z,95998.56
2022-12-12T20:41:29.703Z,96101.88
2022-12-12T20:43:58.193Z,96102.34
2022-12-12T20:46:30.031Z,96108.16
2022-12-12T20:48:58.239Z,96096.84
2022-12-12T20:51:54.909Z,96101.69
2022-12-12T20:54:17.325Z,96081.16
2022-12-12T20:56:46.395Z,96104.03
2022-12-12T20:59:14.518Z,96064.97
2022-12-12T21:01:41.679Z,96042.72
2022-12-12T21:04:09.679Z,96088.72
2022-12-12T21:06:39.329Z,96088.03
2022-12-12T21:09:08.283Z,96050.81
2022-12-12T21:11:35.516Z,96086.72
2022-12-12T21:14:02.446Z,96082.06
2022-12-12T21:16:32.207Z,95971.03
2022-12-12T21:19:03.418Z,96085.69
2022-12-12T21:21:30.150Z,96096.03
2022-12-12T21:23:57.635Z,96093.28
2022-12-12T21:26:28.904Z,96096.09
2022-12-12T21:28:56.537Z,96084.00
2022-12-12T21:31:26.954Z,96085.94
2022-12-12T21:33:54.020Z,96099.13
2022-12-12T21:36:22.937Z,96111.97
2022-12-12T21:38:50.741Z,96101.25
2022-12-12T21:41:19.572Z,96017.69
2022-12-12T21:43:46.567Z,96111.84
2022-12-12T21:46:16.151Z,96126.53
2022-12-12T21:48:42.753Z,96050.50
2022-12-12T21:51:14.996Z,96105.22
2022-12-12T21:53:42.204Z,96115.00
2022-12-12T21:56:10.332Z,96117.28
2022-12-12T21:58:38.249Z,96124.72
2022-12-12T22:01:11.483Z,96133.22
2022-12-12T22:03:38.166Z,96125.63
2022-12-12T22:06:12.202Z,96128.69
2022-12-12T22:08:39.092Z,96083.50
2022-12-12T22:11:07.732Z,96141.69
2022-12-12T22:13:39.678Z,96154.97
2022-12-12T22:16:19.441Z,96169.69
2022-12-12T22:18:47.629Z,96176.97
2022-12-12T22:21:18.827Z,96175.56
2022-12-12T22:23:47.782Z,96175.84
2022-12-12T22:26:21.292Z,96135.78
2022-12-12T22:28:50.474Z,96115.53
2022-12-12T22:31:18.435Z,96178.00
2022-12-12T22:33:46.385Z,96167.72
2022-12-12T22:36:14.118Z,96127.09
2022-12-12T22:38:40.864Z,96200.88
2022-12-12T22:41:07.856Z,96196.00
2022-12-12T22:43:36.152Z,96193.72
2022-12-12T22:46:05.192Z,96199.00
2022-12-12T22:48:33.124Z,96107.06
2022-12-12T22:50:59.764Z,96189.16
2022-12-12T22:53:26.822Z,96200.03
2022-12-12T22:55:53.421Z,96206.91
2022-12-12T22:58:20.004Z,96203.13
2022-12-12T23:00:46.776Z,96191.94
2022-12-12T23:03:13.364Z,96196.31
2022-12-12T23:05:39.979Z,96184.91
2022-12-12T23:08:06.577Z,96192.78
2022-12-12T23:10:35.067Z,96192.19
2022-12-12T23:13:01.675Z,96174.53
2022-12-12T23:15:28.244Z,96204.47
2022-12-12T23:17:54.953Z,96203.88
2022-12-12T23:20:21.529Z,96147.09
2022-12-12T23:22:48.170Z,96193.72
2022-12-12T23:25:14.928Z,96155.44
2022-12-12T23:27:41.735Z,96193.72
2022-12-12T23:30:09.080Z,96182.25
2022-12-12T23:32:35.638Z,96173.19
2022-12-12T23:35:02.324Z,96157.34
2022-12-12T23:37:29.090Z,96086.16
2022-12-12T23:39:55.686Z,96188.53
2022-12-12T23:42:22.268Z,96169.50
2022-12-12T23:44:50.907Z,96189.34
2022-12-12T23:47:17.651Z,96168.50
2022-12-12T23:49:44.187Z,96189.22
2022-12-12T23:52:10.768Z,96201.19
2022-12-12T23:54:37.358Z,96205.31
2022-12-12T23:57:04.016Z,96206.63
2022-12-12T23:59:30.868Z,96220.22
